sensor_id;sensor_type;location;lat;lon;timestamp;P1;durP1;ratioP1;P2;durP2;ratioP2
74080;SDS011;62438;52.228;6.864;2023-09-12T00:01:57;112.68;;;33.55;;
74080;SDS011;62438;52.228;6.864;2023-09-12T00:03:58;117.80;;;31.70;;
74080;SDS011;62438;52.228;6.864;2023-09-12T00:05:59;107.72;;;33.63;;
74080;SDS011;62438;52.228;6.864;2023-09-12T00:08:00;119.75;;;33.70;;
74080;SDS011;62438;52.228;6.864;2023-09-12T00:10:02;104.00;;;35.92;;
74080;SDS011;62438;52.228;6.864;2023-09-12T00:12:03;129.30;;;35.10;;
74080;SDS011;62438;52.228;6.864;2023-09-12T00:14:03;112.00;;;35.50;;
74080;SDS011;62438;52.228;6.864;2023-09-12T00:16:04;154.75;;;36.35;;
74080;SDS011;62438;52.228;6.864;2023-09-12T00:18:09;138.38;;;36.25;;
74080;SDS011;62438;52.228;6.864;2023-09-12T00:20:10;124.93;;;35.67;;
74080;SDS011;62438;52.228;6.864;2023-09-12T00:22:11;118.75;;;35.58;;
74080;SDS011;62438;52.228;6.864;2023-09-12T00:24:11;122.10;;;34.42;;
74080;SDS011;62438;52.228;6.864;2023-09-12T00:26:12;108.10;;;31.70;;
74080;SDS011;62438;52.228;6.864;2023-09-12T00:28:12;117.35;;;31.42;;
74080;SDS011;62438;52.228;6.864;2023-09-12T00:30:13;121.90;;;34.58;;
74080;SDS011;62438;52.228;6.864;2023-09-12T00:32:14;108.45;;;33.25;;
74080;SDS011;62438;52.228;6.864;2023-09-12T00:34:17;124.95;;;34.03;;
74080;SDS011;62438;52.228;6.864;2023-09-12T00:36:18;135.52;;;32.42;;
74080;SDS011;62438;52.228;6.864;2023-09-12T00:38:18;123.13;;;35.03;;
74080;SDS011;62438;52.228;6.864;2023-09-12T00:40:18;106.85;;;33.95;;
74080;SDS011;62438;52.228;6.864;2023-09-12T00:42:19;108.03;;;30.90;;
74080;SDS011;62438;52.228;6.864;2023-09-12T00:44:19;104.78;;;32.38;;
74080;SDS011;62438;52.228;6.864;2023-09-12T00:46:20;97.55;;;31.50;;
74080;SDS011;62438;52.228;6.864;2023-09-12T00:48:22;90.55;;;30.67;;
74080;SDS011;62438;52.228;6.864;2023-09-12T00:50:23;95.70;;;33.38;;
74080;SDS011;62438;52.228;6.864;2023-09-12T00:54:26;82.90;;;30.10;;
74080;SDS011;62438;52.228;6.864;2023-09-12T00:56:26;94.75;;;29.50;;
74080;SDS011;62438;52.228;6.864;2023-09-12T00:58:27;82.20;;;28.48;;
74080;SDS011;62438;52.228;6.864;2023-09-12T01:00:28;95.10;;;31.27;;
74080;SDS011;62438;52.228;6.864;2023-09-12T01:02:28;84.22;;;30.55;;
74080;SDS011;62438;52.228;6.864;2023-09-12T01:04:29;76.85;;;29.80;;
74080;SDS011;62438;52.228;6.864;2023-09-12T01:06:30;78.93;;;29.58;;
74080;SDS011;62438;52.228;6.864;2023-09-12T01:08:34;74.57;;;27.63;;
74080;SDS011;62438;52.228;6.864;2023-09-12T01:10:37;77.40;;;28.88;;
74080;SDS011;62438;52.228;6.864;2023-09-12T01:12:37;68.40;;;27.05;;
74080;SDS011;62438;52.228;6.864;2023-09-12T01:14:38;70.93;;;27.17;;
74080;SDS011;62438;52.228;6.864;2023-09-12T01:16:38;73.93;;;25.92;;
74080;SDS011;62438;52.228;6.864;2023-09-12T01:18:39;72.25;;;24.70;;
74080;SDS011;62438;52.228;6.864;2023-09-12T01:20:42;64.55;;;27.25;;
74080;SDS011;62438;52.228;6.864;2023-09-12T01:27:51;59.90;;;24.10;;
74080;SDS011;62438;52.228;6.864;2023-09-12T01:29:53;71.93;;;26.30;;
74080;SDS011;62438;52.228;6.864;2023-09-12T01:31:57;55.85;;;22.08;;
74080;SDS011;62438;52.228;6.864;2023-09-12T01:34:07;81.75;;;26.65;;
74080;SDS011;62438;52.228;6.864;2023-09-12T01:36:11;69.30;;;25.42;;
74080;SDS011;62438;52.228;6.864;2023-09-12T01:38:12;64.75;;;24.13;;
74080;SDS011;62438;52.228;6.864;2023-09-12T01:40:14;61.95;;;22.75;;
74080;SDS011;62438;52.228;6.864;2023-09-12T01:42:16;60.22;;;22.48;;
74080;SDS011;62438;52.228;6.864;2023-09-12T01:44:20;67.38;;;24.33;;
74080;SDS011;62438;52.228;6.864;2023-09-12T01:46:25;65.95;;;24.45;;
74080;SDS011;62438;52.228;6.864;2023-09-12T01:48:28;64.90;;;22.52;;
74080;SDS011;62438;52.228;6.864;2023-09-12T01:50:33;66.72;;;23.55;;
74080;SDS011;62438;52.228;6.864;2023-09-12T01:52:35;61.50;;;22.45;;
74080;SDS011;62438;52.228;6.864;2023-09-12T01:54:36;67.78;;;22.17;;
74080;SDS011;62438;52.228;6.864;2023-09-12T01:56:38;69.00;;;22.42;;
74080;SDS011;62438;52.228;6.864;2023-09-12T01:58:39;64.72;;;22.45;;
74080;SDS011;62438;52.228;6.864;2023-09-12T02:00:39;79.82;;;23.63;;
74080;SDS011;62438;52.228;6.864;2023-09-12T02:02:41;70.70;;;23.48;;
74080;SDS011;62438;52.228;6.864;2023-09-12T02:04:44;67.47;;;23.08;;
74080;SDS011;62438;52.228;6.864;2023-09-12T02:06:54;61.63;;;20.77;;
74080;SDS011;62438;52.228;6.864;2023-09-12T02:08:54;57.00;;;21.52;;
74080;SDS011;62438;52.228;6.864;2023-09-12T02:10:54;71.72;;;23.50;;
74080;SDS011;62438;52.228;6.864;2023-09-12T02:12:55;71.75;;;21.77;;
74080;SDS011;62438;52.228;6.864;2023-09-12T02:14:55;66.60;;;21.73;;
74080;SDS011;62438;52.228;6.864;2023-09-12T02:16:56;69.95;;;23.65;;
74080;SDS011;62438;52.228;6.864;2023-09-12T02:18:56;63.58;;;20.83;;
74080;SDS011;62438;52.228;6.864;2023-09-12T02:20:58;62.00;;;20.50;;
74080;SDS011;62438;52.228;6.864;2023-09-12T02:22:58;63.30;;;21.05;;
74080;SDS011;62438;52.228;6.864;2023-09-12T02:24:59;78.45;;;22.73;;
74080;SDS011;62438;52.228;6.864;2023-09-12T02:26:59;71.03;;;22.33;;
74080;SDS011;62438;52.228;6.864;2023-09-12T02:28:59;59.45;;;20.45;;
74080;SDS011;62438;52.228;6.864;2023-09-12T02:31:00;61.03;;;20.02;;
74080;SDS011;62438;52.228;6.864;2023-09-12T02:33:00;64.15;;;20.50;;
74080;SDS011;62438;52.228;6.864;2023-09-12T02:35:01;61.17;;;19.95;;
74080;SDS011;62438;52.228;6.864;2023-09-12T02:37:02;54.08;;;21.40;;
74080;SDS011;62438;52.228;6.864;2023-09-12T02:39:02;54.65;;;20.52;;
74080;SDS011;62438;52.228;6.864;2023-09-12T02:41:03;60.25;;;18.17;;
74080;SDS011;62438;52.228;6.864;2023-09-12T02:43:04;59.30;;;18.75;;
74080;SDS011;62438;52.228;6.864;2023-09-12T02:45:04;63.72;;;20.30;;
74080;SDS011;62438;52.228;6.864;2023-09-12T02:47:05;55.97;;;19.00;;
74080;SDS011;62438;52.228;6.864;2023-09-12T02:49:06;62.88;;;20.95;;
74080;SDS011;62438;52.228;6.864;2023-09-12T02:51:06;67.60;;;20.92;;
74080;SDS011;62438;52.228;6.864;2023-09-12T02:53:06;61.40;;;20.20;;
74080;SDS011;62438;52.228;6.864;2023-09-12T02:55:07;66.00;;;19.83;;
74080;SDS011;62438;52.228;6.864;2023-09-12T02:57:07;61.80;;;19.65;;
74080;SDS011;62438;52.228;6.864;2023-09-12T02:59:08;63.10;;;18.42;;
74080;SDS011;62438;52.228;6.864;2023-09-12T03:01:13;57.97;;;19.98;;
74080;SDS011;62438;52.228;6.864;2023-09-12T03:03:15;71.18;;;18.48;;
74080;SDS011;62438;52.228;6.864;2023-09-12T03:05:17;63.75;;;19.27;;
74080;SDS011;62438;52.228;6.864;2023-09-12T03:07:17;59.88;;;18.38;;
74080;SDS011;62438;52.228;6.864;2023-09-12T03:09:17;57.22;;;19.55;;
74080;SDS011;62438;52.228;6.864;2023-09-12T03:11:19;67.47;;;19.30;;
74080;SDS011;62438;52.228;6.864;2023-09-12T03:13:19;67.20;;;18.48;;
74080;SDS011;62438;52.228;6.864;2023-09-12T03:15:20;57.30;;;17.70;;
74080;SDS011;62438;52.228;6.864;2023-09-12T03:17:20;60.33;;;19.67;;
74080;SDS011;62438;52.228;6.864;2023-09-12T03:19:21;62.90;;;19.65;;
74080;SDS011;62438;52.228;6.864;2023-09-12T03:21:21;61.25;;;17.83;;
74080;SDS011;62438;52.228;6.864;2023-09-12T03:23:22;80.43;;;19.63;;
74080;SDS011;62438;52.228;6.864;2023-09-12T03:25:22;62.20;;;20.38;;
74080;SDS011;62438;52.228;6.864;2023-09-12T03:27:22;55.47;;;18.70;;
74080;SDS011;62438;52.228;6.864;2023-09-12T03:29:23;56.22;;;17.77;;
74080;SDS011;62438;52.228;6.864;2023-09-12T03:31:23;56.20;;;17.58;;
74080;SDS011;62438;52.228;6.864;2023-09-12T03:33:24;50.95;;;17.23;;
74080;SDS011;62438;52.228;6.864;2023-09-12T03:35:24;59.83;;;18.38;;
74080;SDS011;62438;52.228;6.864;2023-09-12T03:37:25;57.63;;;18.88;;
74080;SDS011;62438;52.228;6.864;2023-09-12T03:39:27;58.22;;;19.55;;
74080;SDS011;62438;52.228;6.864;2023-09-12T03:41:27;57.88;;;20.17;;
74080;SDS011;62438;52.228;6.864;2023-09-12T03:43:28;57.88;;;19.13;;
74080;SDS011;62438;52.228;6.864;2023-09-12T03:45:28;71.47;;;20.00;;
74080;SDS011;62438;52.228;6.864;2023-09-12T03:47:28;59.13;;;17.80;;
74080;SDS011;62438;52.228;6.864;2023-09-12T03:49:29;62.58;;;18.45;;
74080;SDS011;62438;52.228;6.864;2023-09-12T03:51:29;58.35;;;18.90;;
74080;SDS011;62438;52.228;6.864;2023-09-12T03:53:30;59.97;;;18.08;;
74080;SDS011;62438;52.228;6.864;2023-09-12T03:55:30;56.65;;;19.80;;
74080;SDS011;62438;52.228;6.864;2023-09-12T03:57:30;71.43;;;18.35;;
74080;SDS011;62438;52.228;6.864;2023-09-12T03:59:31;68.93;;;18.02;;
74080;SDS011;62438;52.228;6.864;2023-09-12T04:01:32;68.60;;;18.38;;
74080;SDS011;62438;52.228;6.864;2023-09-12T04:03:32;65.93;;;17.92;;
74080;SDS011;62438;52.228;6.864;2023-09-12T04:05:33;67.90;;;18.30;;
74080;SDS011;62438;52.228;6.864;2023-09-12T04:07:33;65.38;;;19.60;;
74080;SDS011;62438;52.228;6.864;2023-09-12T04:09:33;73.15;;;18.35;;
74080;SDS011;62438;52.228;6.864;2023-09-12T04:11:34;53.15;;;18.38;;
74080;SDS011;62438;52.228;6.864;2023-09-12T04:13:34;59.85;;;18.70;;
74080;SDS011;62438;52.228;6.864;2023-09-12T04:15:34;71.68;;;21.70;;
74080;SDS011;62438;52.228;6.864;2023-09-12T04:17:35;69.43;;;19.92;;
74080;SDS011;62438;52.228;6.864;2023-09-12T04:19:35;57.47;;;19.92;;
74080;SDS011;62438;52.228;6.864;2023-09-12T04:21:36;71.35;;;20.42;;
74080;SDS011;62438;52.228;6.864;2023-09-12T04:23:36;63.10;;;20.77;;
74080;SDS011;62438;52.228;6.864;2023-09-12T04:25:37;64.88;;;20.15;;
74080;SDS011;62438;52.228;6.864;2023-09-12T04:27:37;69.53;;;21.90;;
74080;SDS011;62438;52.228;6.864;2023-09-12T04:29:37;73.10;;;22.20;;
74080;SDS011;62438;52.228;6.864;2023-09-12T04:31:39;73.65;;;21.75;;
74080;SDS011;62438;52.228;6.864;2023-09-12T04:33:39;79.88;;;21.15;;
74080;SDS011;62438;52.228;6.864;2023-09-12T04:35:39;90.25;;;20.08;;
74080;SDS011;62438;52.228;6.864;2023-09-12T04:37:40;78.18;;;20.30;;
74080;SDS011;62438;52.228;6.864;2023-09-12T04:39:40;70.72;;;20.75;;
74080;SDS011;62438;52.228;6.864;2023-09-12T04:41:41;71.03;;;19.80;;
74080;SDS011;62438;52.228;6.864;2023-09-12T04:43:41;94.13;;;20.35;;
74080;SDS011;62438;52.228;6.864;2023-09-12T04:45:43;97.55;;;19.88;;
74080;SDS011;62438;52.228;6.864;2023-09-12T04:47:43;82.95;;;20.80;;
74080;SDS011;62438;52.228;6.864;2023-09-12T04:49:44;82.97;;;20.33;;
74080;SDS011;62438;52.228;6.864;2023-09-12T04:51:44;75.60;;;20.13;;
74080;SDS011;62438;52.228;6.864;2023-09-12T04:53:45;77.35;;;20.73;;
74080;SDS011;62438;52.228;6.864;2023-09-12T04:55:45;88.95;;;20.55;;
74080;SDS011;62438;52.228;6.864;2023-09-12T04:57:45;76.60;;;21.70;;
74080;SDS011;62438;52.228;6.864;2023-09-12T04:59:46;99.72;;;22.70;;
74080;SDS011;62438;52.228;6.864;2023-09-12T05:01:46;97.07;;;22.50;;
74080;SDS011;62438;52.228;6.864;2023-09-12T05:03:47;93.47;;;21.02;;
74080;SDS011;62438;52.228;6.864;2023-09-12T05:05:47;107.28;;;21.98;;
74080;SDS011;62438;52.228;6.864;2023-09-12T05:07:48;87.40;;;21.77;;
74080;SDS011;62438;52.228;6.864;2023-09-12T05:09:49;109.07;;;19.30;;
74080;SDS011;62438;52.228;6.864;2023-09-12T05:11:49;102.88;;;20.67;;
74080;SDS011;62438;52.228;6.864;2023-09-12T05:13:50;93.60;;;20.05;;
74080;SDS011;62438;52.228;6.864;2023-09-12T05:15:50;137.70;;;22.08;;
74080;SDS011;62438;52.228;6.864;2023-09-12T05:17:51;78.30;;;18.20;;
74080;SDS011;62438;52.228;6.864;2023-09-12T05:19:51;86.85;;;19.58;;
74080;SDS011;62438;52.228;6.864;2023-09-12T05:21:51;111.82;;;20.55;;
74080;SDS011;62438;52.228;6.864;2023-09-12T05:23:52;101.50;;;19.52;;
74080;SDS011;62438;52.228;6.864;2023-09-12T05:25:52;86.05;;;20.88;;
74080;SDS011;62438;52.228;6.864;2023-09-12T05:27:56;102.15;;;20.45;;
74080;SDS011;62438;52.228;6.864;2023-09-12T05:29:56;105.82;;;20.42;;
74080;SDS011;62438;52.228;6.864;2023-09-12T05:31:56;108.00;;;20.27;;
74080;SDS011;62438;52.228;6.864;2023-09-12T05:33:57;155.68;;;22.40;;
74080;SDS011;62438;52.228;6.864;2023-09-12T05:35:57;149.57;;;20.92;;
74080;SDS011;62438;52.228;6.864;2023-09-12T05:37:58;102.28;;;21.10;;
74080;SDS011;62438;52.228;6.864;2023-09-12T05:39:58;125.95;;;23.30;;
74080;SDS011;62438;52.228;6.864;2023-09-12T05:41:58;98.70;;;21.95;;
74080;SDS011;62438;52.228;6.864;2023-09-12T05:43:59;123.47;;;20.52;;
74080;SDS011;62438;52.228;6.864;2023-09-12T05:45:59;107.63;;;20.90;;
74080;SDS011;62438;52.228;6.864;2023-09-12T05:48:00;126.82;;;23.75;;
74080;SDS011;62438;52.228;6.864;2023-09-12T05:50:00;116.15;;;21.77;;
74080;SDS011;62438;52.228;6.864;2023-09-12T05:52:01;119.68;;;22.15;;
74080;SDS011;62438;52.228;6.864;2023-09-12T05:54:02;113.78;;;22.63;;
74080;SDS011;62438;52.228;6.864;2023-09-12T05:56:03;134.65;;;22.45;;
74080;SDS011;62438;52.228;6.864;2023-09-12T05:58:04;112.55;;;23.38;;
74080;SDS011;62438;52.228;6.864;2023-09-12T06:00:05;156.20;;;23.33;;
74080;SDS011;62438;52.228;6.864;2023-09-12T06:02:10;101.72;;;22.80;;
74080;SDS011;62438;52.228;6.864;2023-09-12T06:04:10;114.95;;;23.40;;
74080;SDS011;62438;52.228;6.864;2023-09-12T06:06:11;95.95;;;22.17;;
74080;SDS011;62438;52.228;6.864;2023-09-12T06:08:11;128.93;;;23.23;;
74080;SDS011;62438;52.228;6.864;2023-09-12T06:10:12;130.68;;;23.90;;
74080;SDS011;62438;52.228;6.864;2023-09-12T06:12:12;121.68;;;22.33;;
74080;SDS011;62438;52.228;6.864;2023-09-12T06:14:13;117.10;;;22.23;;
74080;SDS011;62438;52.228;6.864;2023-09-12T06:16:13;104.45;;;23.10;;
74080;SDS011;62438;52.228;6.864;2023-09-12T06:18:13;108.32;;;22.48;;
74080;SDS011;62438;52.228;6.864;2023-09-12T06:20:14;102.05;;;23.70;;
74080;SDS011;62438;52.228;6.864;2023-09-12T06:22:14;109.72;;;23.85;;
74080;SDS011;62438;52.228;6.864;2023-09-12T06:24:19;105.28;;;21.60;;
74080;SDS011;62438;52.228;6.864;2023-09-12T06:26:23;89.80;;;20.80;;
74080;SDS011;62438;52.228;6.864;2023-09-12T06:28:25;89.40;;;21.83;;
74080;SDS011;62438;52.228;6.864;2023-09-12T06:30:28;101.25;;;21.85;;
74080;SDS011;62438;52.228;6.864;2023-09-12T06:32:29;111.55;;;21.85;;
74080;SDS011;62438;52.228;6.864;2023-09-12T06:34:30;98.13;;;22.02;;
74080;SDS011;62438;52.228;6.864;2023-09-12T06:36:30;92.13;;;23.55;;
74080;SDS011;62438;52.228;6.864;2023-09-12T06:38:30;83.53;;;21.83;;
74080;SDS011;62438;52.228;6.864;2023-09-12T06:40:31;83.18;;;21.27;;
74080;SDS011;62438;52.228;6.864;2023-09-12T06:42:31;82.60;;;21.73;;
74080;SDS011;62438;52.228;6.864;2023-09-12T06:44:31;96.50;;;23.17;;
74080;SDS011;62438;52.228;6.864;2023-09-12T06:46:32;97.60;;;23.02;;
74080;SDS011;62438;52.228;6.864;2023-09-12T06:48:35;90.82;;;24.08;;
74080;SDS011;62438;52.228;6.864;2023-09-12T06:50:36;99.90;;;25.10;;
74080;SDS011;62438;52.228;6.864;2023-09-12T06:54:38;76.83;;;25.80;;
74080;SDS011;62438;52.228;6.864;2023-09-12T06:56:39;101.32;;;26.70;;
74080;SDS011;62438;52.228;6.864;2023-09-12T06:58:41;92.53;;;25.92;;
74080;SDS011;62438;52.228;6.864;2023-09-12T07:00:42;94.72;;;27.80;;
74080;SDS011;62438;52.228;6.864;2023-09-12T07:02:42;89.88;;;27.98;;
74080;SDS011;62438;52.228;6.864;2023-09-12T07:04:43;94.22;;;26.02;;
74080;SDS011;62438;52.228;6.864;2023-09-12T07:06:43;97.82;;;26.42;;
74080;SDS011;62438;52.228;6.864;2023-09-12T07:08:44;90.85;;;24.95;;
74080;SDS011;62438;52.228;6.864;2023-09-12T07:10:44;81.47;;;25.63;;
74080;SDS011;62438;52.228;6.864;2023-09-12T07:12:48;84.70;;;26.58;;
74080;SDS011;62438;52.228;6.864;2023-09-12T07:14:48;75.20;;;24.70;;
74080;SDS011;62438;52.228;6.864;2023-09-12T07:18:51;67.13;;;22.93;;
74080;SDS011;62438;52.228;6.864;2023-09-12T07:20:58;69.25;;;21.30;;
74080;SDS011;62438;52.228;6.864;2023-09-12T07:22:59;46.63;;;19.30;;
74080;SDS011;62438;52.228;6.864;2023-09-12T07:25:00;50.28;;;19.65;;
74080;SDS011;62438;52.228;6.864;2023-09-12T07:27:01;55.28;;;21.50;;
74080;SDS011;62438;52.228;6.864;2023-09-12T07:29:01;51.75;;;19.52;;
74080;SDS011;62438;52.228;6.864;2023-09-12T07:31:04;59.88;;;20.23;;
74080;SDS011;62438;52.228;6.864;2023-09-12T07:33:04;47.85;;;19.30;;
74080;SDS011;62438;52.228;6.864;2023-09-12T07:35:05;57.50;;;20.02;;
74080;SDS011;62438;52.228;6.864;2023-09-12T07:37:05;59.10;;;20.20;;
74080;SDS011;62438;52.228;6.864;2023-09-12T07:39:06;61.95;;;20.80;;
74080;SDS011;62438;52.228;6.864;2023-09-12T07:41:06;60.20;;;20.52;;
74080;SDS011;62438;52.228;6.864;2023-09-12T07:43:07;59.38;;;18.88;;
74080;SDS011;62438;52.228;6.864;2023-09-12T07:45:07;56.55;;;21.52;;
74080;SDS011;62438;52.228;6.864;2023-09-12T07:47:08;56.70;;;19.90;;
74080;SDS011;62438;52.228;6.864;2023-09-12T07:49:09;58.40;;;21.17;;
74080;SDS011;62438;52.228;6.864;2023-09-12T07:51:13;49.10;;;20.70;;
74080;SDS011;62438;52.228;6.864;2023-09-12T07:53:15;48.10;;;20.48;;
74080;SDS011;62438;52.228;6.864;2023-09-12T07:55:15;50.58;;;18.23;;
74080;SDS011;62438;52.228;6.864;2023-09-12T07:57:16;50.72;;;19.48;;
74080;SDS011;62438;52.228;6.864;2023-09-12T07:59:16;53.78;;;20.30;;
74080;SDS011;62438;52.228;6.864;2023-09-12T08:01:16;48.28;;;18.70;;
74080;SDS011;62438;52.228;6.864;2023-09-12T08:03:17;55.88;;;21.17;;
74080;SDS011;62438;52.228;6.864;2023-09-12T08:05:17;51.03;;;20.10;;
74080;SDS011;62438;52.228;6.864;2023-09-12T08:07:19;51.92;;;21.00;;
74080;SDS011;62438;52.228;6.864;2023-09-12T08:09:20;52.28;;;19.85;;
74080;SDS011;62438;52.228;6.864;2023-09-12T08:11:20;52.75;;;20.13;;
74080;SDS011;62438;52.228;6.864;2023-09-12T08:13:21;51.83;;;19.90;;
74080;SDS011;62438;52.228;6.864;2023-09-12T08:15:21;59.65;;;20.75;;
74080;SDS011;62438;52.228;6.864;2023-09-12T08:17:22;55.25;;;20.92;;
74080;SDS011;62438;52.228;6.864;2023-09-12T08:19:23;61.75;;;22.77;;
74080;SDS011;62438;52.228;6.864;2023-09-12T08:21:23;52.15;;;21.75;;
74080;SDS011;62438;52.228;6.864;2023-09-12T08:23:24;54.63;;;21.63;;
74080;SDS011;62438;52.228;6.864;2023-09-12T08:25:25;56.88;;;20.60;;
74080;SDS011;62438;52.228;6.864;2023-09-12T08:27:25;58.95;;;21.45;;
74080;SDS011;62438;52.228;6.864;2023-09-12T08:29:30;62.63;;;21.90;;
74080;SDS011;62438;52.228;6.864;2023-09-12T08:31:33;55.58;;;20.60;;
74080;SDS011;62438;52.228;6.864;2023-09-12T08:33:34;54.15;;;20.92;;
74080;SDS011;62438;52.228;6.864;2023-09-12T08:35:34;54.08;;;22.00;;
74080;SDS011;62438;52.228;6.864;2023-09-12T08:37:34;53.80;;;21.55;;
74080;SDS011;62438;52.228;6.864;2023-09-12T08:39:42;55.38;;;22.05;;
74080;SDS011;62438;52.228;6.864;2023-09-12T08:43:46;52.25;;;20.08;;
74080;SDS011;62438;52.228;6.864;2023-09-12T08:45:48;54.47;;;20.83;;
74080;SDS011;62438;52.228;6.864;2023-09-12T08:47:52;53.28;;;21.95;;
74080;SDS011;62438;52.228;6.864;2023-09-12T08:49:54;57.70;;;23.65;;
74080;SDS011;62438;52.228;6.864;2023-09-12T08:51:54;53.20;;;22.70;;
74080;SDS011;62438;52.228;6.864;2023-09-12T08:53:55;58.38;;;22.73;;
74080;SDS011;62438;52.228;6.864;2023-09-12T08:55:55;52.13;;;22.40;;
74080;SDS011;62438;52.228;6.864;2023-09-12T08:57:56;58.80;;;24.20;;
74080;SDS011;62438;52.228;6.864;2023-09-12T08:59:58;59.67;;;25.15;;
74080;SDS011;62438;52.228;6.864;2023-09-12T09:02:05;63.25;;;24.80;;
74080;SDS011;62438;52.228;6.864;2023-09-12T09:04:08;50.30;;;22.52;;
74080;SDS011;62438;52.228;6.864;2023-09-12T09:06:09;51.63;;;23.92;;
74080;SDS011;62438;52.228;6.864;2023-09-12T09:08:11;45.10;;;23.13;;
74080;SDS011;62438;52.228;6.864;2023-09-12T09:10:16;47.55;;;22.77;;
74080;SDS011;62438;52.228;6.864;2023-09-12T09:12:17;47.47;;;24.48;;
74080;SDS011;62438;52.228;6.864;2023-09-12T09:14:18;44.45;;;22.98;;
74080;SDS011;62438;52.228;6.864;2023-09-12T09:16:19;40.80;;;21.20;;
74080;SDS011;62438;52.228;6.864;2023-09-12T09:18:21;39.65;;;19.48;;
74080;SDS011;62438;52.228;6.864;2023-09-12T09:20:25;41.05;;;21.35;;
74080;SDS011;62438;52.228;6.864;2023-09-12T09:22:27;42.17;;;21.38;;
74080;SDS011;62438;52.228;6.864;2023-09-12T09:24:28;46.50;;;20.88;;
74080;SDS011;62438;52.228;6.864;2023-09-12T09:26:41;38.22;;;19.73;;
74080;SDS011;62438;52.228;6.864;2023-09-12T09:28:45;38.30;;;20.75;;
74080;SDS011;62438;52.228;6.864;2023-09-12T09:30:47;34.58;;;18.67;;
74080;SDS011;62438;52.228;6.864;2023-09-12T09:32:48;36.00;;;19.52;;
74080;SDS011;62438;52.228;6.864;2023-09-12T09:34:54;33.35;;;19.63;;
74080;SDS011;62438;52.228;6.864;2023-09-12T09:36:55;36.83;;;20.33;;
74080;SDS011;62438;52.228;6.864;2023-09-12T09:38:56;39.25;;;21.30;;
74080;SDS011;62438;52.228;6.864;2023-09-12T09:40:59;39.33;;;21.02;;
74080;SDS011;62438;52.228;6.864;2023-09-12T09:43:00;40.50;;;20.83;;
74080;SDS011;62438;52.228;6.864;2023-09-12T09:45:01;43.95;;;21.33;;
74080;SDS011;62438;52.228;6.864;2023-09-12T09:47:02;39.60;;;19.48;;
74080;SDS011;62438;52.228;6.864;2023-09-12T09:49:03;39.30;;;20.75;;
74080;SDS011;62438;52.228;6.864;2023-09-12T09:51:06;40.05;;;21.13;;
74080;SDS011;62438;52.228;6.864;2023-09-12T09:53:06;36.17;;;18.70;;
74080;SDS011;62438;52.228;6.864;2023-09-12T09:55:12;39.25;;;20.98;;
74080;SDS011;62438;52.228;6.864;2023-09-12T09:57:14;29.98;;;17.65;;
74080;SDS011;62438;52.228;6.864;2023-09-12T09:59:15;34.92;;;18.80;;
74080;SDS011;62438;52.228;6.864;2023-09-12T10:01:18;36.58;;;20.42;;
74080;SDS011;62438;52.228;6.864;2023-09-12T10:03:20;34.95;;;21.35;;
74080;SDS011;62438;52.228;6.864;2023-09-12T10:05:22;34.47;;;19.15;;
74080;SDS011;62438;52.228;6.864;2023-09-12T10:07:23;35.22;;;20.73;;
74080;SDS011;62438;52.228;6.864;2023-09-12T10:09:27;39.28;;;21.65;;
74080;SDS011;62438;52.228;6.864;2023-09-12T10:11:28;36.15;;;20.90;;
74080;SDS011;62438;52.228;6.864;2023-09-12T10:13:33;37.88;;;21.30;;
74080;SDS011;62438;52.228;6.864;2023-09-12T10:15:36;35.08;;;18.52;;
74080;SDS011;62438;52.228;6.864;2023-09-12T10:17:39;33.58;;;19.25;;
74080;SDS011;62438;52.228;6.864;2023-09-12T10:19:54;32.95;;;19.98;;
74080;SDS011;62438;52.228;6.864;2023-09-12T10:24:20;40.92;;;21.75;;
74080;SDS011;62438;52.228;6.864;2023-09-12T10:26:22;33.88;;;20.42;;
74080;SDS011;62438;52.228;6.864;2023-09-12T10:28:23;32.55;;;18.77;;
74080;SDS011;62438;52.228;6.864;2023-09-12T10:30:24;33.05;;;18.63;;
74080;SDS011;62438;52.228;6.864;2023-09-12T10:32:26;29.80;;;17.80;;
74080;SDS011;62438;52.228;6.864;2023-09-12T10:34:30;31.65;;;19.23;;
74080;SDS011;62438;52.228;6.864;2023-09-12T10:36:32;36.42;;;19.08;;
74080;SDS011;62438;52.228;6.864;2023-09-12T10:38:32;28.80;;;16.80;;
74080;SDS011;62438;52.228;6.864;2023-09-12T10:40:39;26.13;;;15.77;;
74080;SDS011;62438;52.228;6.864;2023-09-12T10:42:41;26.77;;;14.88;;
74080;SDS011;62438;52.228;6.864;2023-09-12T10:44:43;23.90;;;14.88;;
74080;SDS011;62438;52.228;6.864;2023-09-12T10:46:45;21.05;;;11.38;;
74080;SDS011;62438;52.228;6.864;2023-09-12T10:48:47;19.60;;;12.32;;
74080;SDS011;62438;52.228;6.864;2023-09-12T10:50:48;18.30;;;11.85;;
74080;SDS011;62438;52.228;6.864;2023-09-12T10:52:49;18.05;;;9.43;;
74080;SDS011;62438;52.228;6.864;2023-09-12T10:54:49;15.45;;;8.52;;
74080;SDS011;62438;52.228;6.864;2023-09-12T10:57:09;14.73;;;9.20;;
74080;SDS011;62438;52.228;6.864;2023-09-12T10:59:13;14.38;;;8.55;;
74080;SDS011;62438;52.228;6.864;2023-09-12T11:09:38;13.45;;;7.28;;
74080;SDS011;62438;52.228;6.864;2023-09-12T11:11:39;14.80;;;8.98;;
74080;SDS011;62438;52.228;6.864;2023-09-12T11:13:41;14.80;;;7.97;;
74080;SDS011;62438;52.228;6.864;2023-09-12T11:16:09;16.27;;;8.60;;
74080;SDS011;62438;52.228;6.864;2023-09-12T11:18:10;12.95;;;7.50;;
74080;SDS011;62438;52.228;6.864;2023-09-12T11:20:11;14.20;;;8.30;;
74080;SDS011;62438;52.228;6.864;2023-09-12T11:22:26;11.55;;;7.15;;
74080;SDS011;62438;52.228;6.864;2023-09-12T11:24:28;12.93;;;7.28;;
74080;SDS011;62438;52.228;6.864;2023-09-12T11:29:12;12.57;;;7.72;;
74080;SDS011;62438;52.228;6.864;2023-09-12T11:31:23;14.82;;;8.43;;
74080;SDS011;62438;52.228;6.864;2023-09-12T11:33:25;13.25;;;8.20;;
74080;SDS011;62438;52.228;6.864;2023-09-12T11:35:27;16.38;;;8.95;;
74080;SDS011;62438;52.228;6.864;2023-09-12T11:37:29;13.68;;;8.25;;
74080;SDS011;62438;52.228;6.864;2023-09-12T11:39:33;11.63;;;7.00;;
74080;SDS011;62438;52.228;6.864;2023-09-12T11:41:40;14.43;;;8.15;;
74080;SDS011;62438;52.228;6.864;2023-09-12T11:43:41;16.92;;;10.63;;
74080;SDS011;62438;52.228;6.864;2023-09-12T11:45:42;13.77;;;8.38;;
74080;SDS011;62438;52.228;6.864;2023-09-12T11:47:44;14.85;;;8.15;;
74080;SDS011;62438;52.228;6.864;2023-09-12T11:49:45;12.45;;;6.82;;
74080;SDS011;62438;52.228;6.864;2023-09-12T11:51:46;15.68;;;8.57;;
74080;SDS011;62438;52.228;6.864;2023-09-12T11:53:51;14.75;;;8.32;;
74080;SDS011;62438;52.228;6.864;2023-09-12T11:55:59;17.60;;;9.38;;
74080;SDS011;62438;52.228;6.864;2023-09-12T11:58:00;13.75;;;9.15;;
74080;SDS011;62438;52.228;6.864;2023-09-12T12:00:02;13.90;;;8.13;;
74080;SDS011;62438;52.228;6.864;2023-09-12T12:02:08;14.68;;;8.10;;
74080;SDS011;62438;52.228;6.864;2023-09-12T12:04:09;15.30;;;8.93;;
74080;SDS011;62438;52.228;6.864;2023-09-12T12:06:10;14.70;;;8.32;;
74080;SDS011;62438;52.228;6.864;2023-09-12T12:08:11;15.10;;;9.63;;
74080;SDS011;62438;52.228;6.864;2023-09-12T12:10:11;14.02;;;8.90;;
74080;SDS011;62438;52.228;6.864;2023-09-12T12:12:12;15.15;;;8.75;;
74080;SDS011;62438;52.228;6.864;2023-09-12T12:14:15;15.27;;;8.98;;
74080;SDS011;62438;52.228;6.864;2023-09-12T12:16:16;14.40;;;8.30;;
74080;SDS011;62438;52.228;6.864;2023-09-12T12:18:17;13.45;;;8.27;;